createdAt,value
2023-01-17T00:00:04.783Z,100555.21
2023-01-17T00:02:32.897Z,100552.86
2023-01-17T00:05:18.260Z,100551.81
2023-01-17T00:08:03.448Z,100543.85
2023-01-17T00:10:30.065Z,100544.61
2023-01-17T00:13:02.961Z,100538.61
2023-01-17T00:15:31.190Z,100537.23
2023-01-17T00:17:57.856Z,100535.36
2023-01-17T00:20:49.550Z,100531.23
2023-01-17T00:23:38.674Z,100528.83
2023-01-17T00:26:16.120Z,100524.66
2023-01-17T00:28:42.815Z,100522.08
2023-01-17T00:31:12.736Z,100523.30
2023-01-17T00:33:39.705Z,100520.69
2023-01-17T00:36:06.975Z,100514.45
2023-01-17T00:38:34.993Z,100512.38
2023-01-17T00:41:09.527Z,100513.94
2023-01-17T00:43:54.865Z,100515.11
2023-01-17T00:46:40.551Z,100512.48
2023-01-17T00:49:26.205Z,100508.14
2023-01-17T00:52:11.648Z,100508.77
2023-01-17T00:54:57.014Z,100510.66
2023-01-17T00:57:42.241Z,100514.42
2023-01-17T01:00:27.956Z,100514.76
2023-01-17T01:03:14.832Z,100508.64
2023-01-17T01:06:00.128Z,100500.56
2023-01-17T01:08:46.944Z,100500.09
2023-01-17T01:11:34.229Z,100502.29
2023-01-17T01:14:20.336Z,100505.48
2023-01-17T01:17:05.547Z,100502.87
2023-01-17T01:19:50.961Z,100504.73
2023-01-17T01:22:36.233Z,100507.11
2023-01-17T01:25:21.709Z,100504.79
2023-01-17T01:28:06.901Z,100500.56
2023-01-17T01:30:52.250Z,100499.64
2023-01-17T01:33:19.109Z,100500.27
2023-01-17T01:35:47.607Z,100501.98
2023-01-17T01:38:15.085Z,100502.77
2023-01-17T01:40:43.600Z,100496.31
2023-01-17T01:43:12.394Z,100495.20
2023-01-17T01:45:39.868Z,100493.19
2023-01-17T01:48:22.116Z,100493.14
2023-01-17T01:50:48.970Z,100497.71
2023-01-17T01:53:15.618Z,100496.45
2023-01-17T01:55:42.594Z,100500.50
2023-01-17T01:58:13.063Z,100499.71
2023-01-17T02:00:40.253Z,100493.77
2023-01-17T02:03:12.758Z,100494.00
2023-01-17T02:05:41.811Z,100490.13
2023-01-17T02:08:11.366Z,100490.38
2023-01-17T02:10:39.337Z,100487.86
2023-01-17T02:13:06.344Z,100480.29
2023-01-17T02:15:38.537Z,100475.16
2023-01-17T02:18:30.435Z,100474.61
2023-01-17T02:21:09.405Z,100475.98
2023-01-17T02:24:13.639Z,100476.64
2023-01-17T02:26:51.998Z,100474.48
2023-01-17T02:29:31.717Z,100470.84
2023-01-17T02:32:15.718Z,100465.61
2023-01-17T02:35:14.601Z,100466.60
2023-01-17T02:38:14.859Z,100462.77
2023-01-17T02:40:49.559Z,100460.48
2023-01-17T02:43:19.151Z,100457.34
2023-01-17T02:45:50.522Z,100459.95
2023-01-17T02:48:20.867Z,100459.21
2023-01-17T02:51:18.347Z,100458.85
2023-01-17T02:53:59.859Z,100456.61
2023-01-17T02:57:04.528Z,100455.80
2023-01-17T02:59:42.487Z,100451.29
2023-01-17T03:02:50.550Z,100452.48
2023-01-17T03:05:39.531Z,100448.90
2023-01-17T03:08:08.519Z,100445.98
2023-01-17T03:10:37.469Z,100447.09
2023-01-17T03:13:06.400Z,100444.73
2023-01-17T03:15:35.862Z,100444.42
2023-01-17T03:18:06.512Z,100441.51
2023-01-17T03:20:36.552Z,100441.28
2023-01-17T03:23:05.804Z,100438.60
2023-01-17T03:25:34.767Z,100435.56
2023-01-17T03:28:04.751Z,100432.86
2023-01-17T03:30:34.329Z,100435.16
2023-01-17T03:33:03.642Z,100431.20
2023-01-17T03:43:15.199Z,100416.50
2023-01-17T03:45:41.990Z,100411.09
2023-01-17T03:48:09.089Z,100410.59
2023-01-17T03:50:35.896Z,100410.09
2023-01-17T03:53:02.775Z,100415.95
2023-01-17T03:55:29.496Z,100415.39
2023-01-17T03:57:56.469Z,100410.83
2023-01-17T04:00:23.373Z,100412.73
2023-01-17T04:02:50.411Z,100404.56
2023-01-17T04:05:17.311Z,100401.23
2023-01-17T04:07:44.064Z,100402.06
2023-01-17T04:10:11.040Z,100402.55
2023-01-17T04:12:38.327Z,100410.55
2023-01-17T04:15:05.898Z,100417.45
2023-01-17T04:17:32.819Z,100420.21
2023-01-17T04:19:59.688Z,100425.36
2023-01-17T04:22:26.401Z,100418.80
2023-01-17T04:24:53.095Z,100406.89
2023-01-17T04:27:19.994Z,100403.67
2023-01-17T04:29:46.961Z,100400.26
2023-01-17T04:32:14.922Z,100394.98
2023-01-17T04:34:42.168Z,100388.48
2023-01-17T04:37:08.927Z,100387.73
2023-01-17T04:39:35.835Z,100387.66
2023-01-17T04:42:03.124Z,100388.23
2023-01-17T04:44:29.931Z,100395.48
2023-01-17T04:46:56.778Z,100393.08
2023-01-17T04:49:23.543Z,100389.58
2023-01-17T04:51:50.465Z,100394.04
2023-01-17T04:54:17.309Z,100393.42
2023-01-17T04:56:45.081Z,100394.38
2023-01-17T04:59:12.231Z,100394.27
2023-01-17T05:01:39.336Z,100394.52
2023-01-17T05:04:06.443Z,100385.27
2023-01-17T05:06:33.382Z,100396.14
2023-01-17T05:09:00.157Z,100392.45
2023-01-17T05:11:27.056Z,100397.75
2023-01-17T05:13:53.994Z,100399.38
2023-01-17T05:16:20.849Z,100397.86
2023-01-17T05:18:50.652Z,100402.78
2023-01-17T05:21:17.506Z,100404.58
2023-01-17T05:23:44.253Z,100397.52
2023-01-17T05:26:11.026Z,100391.02
2023-01-17T05:28:37.928Z,100384.39
2023-01-17T05:31:04.846Z,100389.84
2023-01-17T05:33:32.033Z,100390.27
2023-01-17T05:35:59.215Z,100393.48
2023-01-17T05:38:26.018Z,100384.88
2023-01-17T05:40:52.832Z,100385.86
2023-01-17T05:43:20.806Z,100387.28
2023-01-17T05:45:50.130Z,100384.79
2023-01-17T05:48:17.000Z,100382.55
2023-01-17T05:50:43.816Z,100380.31
2023-01-17T05:53:12.563Z,100380.98
2023-01-17T05:55:39.859Z,100375.63
2023-01-17T05:58:07.318Z,100371.00
2023-01-17T06:00:34.097Z,100369.80
2023-01-17T06:03:01.323Z,100365.84
2023-01-17T06:05:28.339Z,100362.19
2023-01-17T06:07:55.097Z,100367.89
2023-01-17T06:10:23.786Z,100358.41
2023-01-17T06:12:50.649Z,100360.61
2023-01-17T06:15:17.988Z,100368.77
2023-01-17T06:17:44.763Z,100370.11
2023-01-17T06:20:12.298Z,100362.98
2023-01-17T06:22:39.124Z,100356.71
2023-01-17T06:25:07.821Z,100356.48
2023-01-17T06:27:34.658Z,100362.27
2023-01-17T06:30:01.527Z,100358.05
2023-01-17T06:32:28.377Z,100358.36
2023-01-17T06:34:55.396Z,100352.07
2023-01-17T06:37:22.210Z,100354.77
2023-01-17T06:39:49.298Z,100349.16
2023-01-17T06:42:16.434Z,100352.89
2023-01-17T06:44:43.416Z,100349.17
2023-01-17T06:47:10.200Z,100347.85
2023-01-17T06:49:36.934Z,100345.54
2023-01-17T06:52:03.824Z,100351.81
2023-01-17T06:54:30.629Z,100349.10
2023-01-17T06:56:57.441Z,100349.30
2023-01-17T06:59:24.497Z,100344.13
2023-01-17T07:01:51.527Z,100341.41
2023-01-17T07:04:18.439Z,100335.91
2023-01-17T07:06:45.378Z,100334.92
2023-01-17T07:09:12.579Z,100330.11
2023-01-17T07:11:39.473Z,100323.83
2023-01-17T07:14:06.258Z,100318.83
2023-01-17T07:16:34.168Z,100321.67
2023-01-17T07:19:01.054Z,100323.61
2023-01-17T07:21:28.083Z,100326.06
2023-01-17T07:23:54.967Z,100324.13
2023-01-17T07:26:22.256Z,100323.58
2023-01-17T07:28:49.116Z,100328.27
2023-01-17T07:31:16.463Z,100334.33
2023-01-17T07:33:43.529Z,100332.02
2023-01-17T07:36:11.229Z,100341.14
2023-01-17T07:38:38.050Z,100340.48
2023-01-17T07:41:05.192Z,100344.86
2023-01-17T07:43:32.230Z,100345.98
2023-01-17T07:46:04.572Z,100337.88
2023-01-17T07:48:37.603Z,100339.33
2023-01-17T07:51:16.477Z,100332.77
2023-01-17T07:54:47.728Z,100329.48
2023-01-17T07:57:28.953Z,100331.48
2023-01-17T08:00:35.638Z,100331.79
2023-01-17T08:03:14.007Z,100337.14
2023-01-17T10:15:03.257Z,100264.36
2023-01-17T10:18:05.021Z,100264.13
2023-01-17T10:20:51.828Z,100255.79
2023-01-17T10:23:35.587Z,100255.49
2023-01-17T10:26:07.995Z,100248.61
2023-01-17T10:28:46.530Z,100250.94
2023-01-17T10:31:22.142Z,100254.33
2023-01-17T10:33:56.106Z,100248.27
2023-01-17T10:36:24.938Z,100245.25
2023-01-17T10:38:56.460Z,100240.65
2023-01-17T10:41:28.124Z,100229.92
2023-01-17T10:44:18.418Z,100223.85
2023-01-17T10:46:51.126Z,100224.70
2023-01-17T10:49:19.635Z,100215.81
2023-01-17T10:51:59.268Z,100211.06
2023-01-17T10:54:28.646Z,100207.52
2023-01-17T10:56:55.210Z,100202.75
2023-01-17T10:59:29.973Z,100202.85
2023-01-17T11:02:00.163Z,100198.21
2023-01-17T11:04:37.545Z,100191.85
2023-01-17T11:07:14.520Z,100187.51
2023-01-17T11:09:46.036Z,100188.29
2023-01-17T11:12:28.837Z,100189.27
2023-01-17T11:15:05.653Z,100183.03
2023-01-17T11:17:33.495Z,100182.59
2023-01-17T11:20:07.774Z,100179.24
2023-01-17T11:22:37.221Z,100179.21
2023-01-17T11:25:04.788Z,100173.86
2023-01-17T11:27:37.597Z,100172.48
2023-01-17T11:30:16.398Z,100167.77
2023-01-17T11:32:56.948Z,100161.36
2023-01-17T11:43:18.787Z,100165.72
2023-01-17T11:45:46.811Z,100169.17
2023-01-17T11:48:16.208Z,100166.95
2023-01-17T11:50:59.433Z,100159.91
2023-01-17T11:53:34.585Z,100159.49
2023-01-17T11:56:12.604Z,100159.77
2023-01-17T11:58:41.425Z,100149.88
2023-01-17T12:01:27.582Z,100150.20
2023-01-17T12:03:59.498Z,100147.90
2023-01-17T12:06:56.769Z,100138.97
2023-01-17T12:09:42.855Z,100133.05
2023-01-17T12:12:40.022Z,100137.89
2023-01-17T12:15:39.995Z,100141.12
2023-01-17T12:18:25.839Z,100136.91
2023-01-17T12:20:59.031Z,100136.17
2023-01-17T12:23:51.315Z,100140.32
2023-01-17T12:26:44.431Z,100141.96
2023-01-17T12:29:42.338Z,100142.36
2023-01-17T12:32:23.393Z,100146.55
2023-01-17T12:34:52.779Z,100145.21
2023-01-17T12:37:40.212Z,100140.90
2023-01-17T12:40:13.196Z,100145.17
2023-01-17T12:42:48.114Z,100148.20
2023-01-17T12:45:28.667Z,100143.04
2023-01-17T12:47:59.944Z,100145.26
2023-01-17T12:50:41.619Z,100144.52
2023-01-17T12:53:35.403Z,100137.70
2023-01-17T12:56:08.526Z,100131.51
2023-01-17T12:58:39.858Z,100123.35
2023-01-17T13:01:18.935Z,100131.55
2023-01-17T13:04:00.472Z,100139.87
2023-01-17T13:06:51.063Z,100137.40
2023-01-17T13:09:19.604Z,100139.55
2023-01-17T13:11:58.025Z,100143.38
2023-01-17T13:14:24.905Z,100142.66
2023-01-17T13:16:59.109Z,100138.02
2023-01-17T13:19:48.082Z,100134.20
2023-01-17T13:22:19.447Z,100130.63
2023-01-17T13:24:50.776Z,100132.94
2023-01-17T13:27:43.838Z,100128.34
2023-01-17T13:30:15.491Z,100127.27
2023-01-17T13:32:51.432Z,100126.53
2023-01-17T13:35:58.332Z,100123.70
2023-01-17T13:38:25.489Z,100123.64
2023-01-17T13:41:03.831Z,100115.48
2023-01-17T13:43:34.269Z,100105.58
2023-01-17T13:46:03.380Z,100104.67
2023-01-17T13:48:41.157Z,100105.19
2023-01-17T13:51:08.892Z,100107.80
2023-01-17T13:53:35.627Z,100110.58
2023-01-17T13:56:15.993Z,100108.14
2023-01-17T13:58:54.607Z,100108.44
2023-01-17T14:01:24.618Z,100105.27
2023-01-17T14:03:54.535Z,100102.30
2023-01-17T14:06:35.406Z,100099.66
2023-01-17T16:15:13.492Z,100047.52
2023-01-17T16:17:44.987Z,100042.96
2023-01-17T16:20:18.699Z,100040.42
2023-01-17T16:22:46.403Z,100038.04
2023-01-17T16:25:16.314Z,100044.17
2023-01-17T16:27:44.434Z,100045.15
2023-01-17T16:30:16.198Z,100043.12
2023-01-17T16:32:46.342Z,100049.74
2023-01-17T16:35:23.951Z,100043.71
2023-01-17T16:37:55.041Z,100042.91
2023-01-17T16:40:23.501Z,100043.14
2023-01-17T16:42:50.301Z,100042.57
2023-01-17T16:45:17.372Z,100038.36
2023-01-17T16:47:47.382Z,100040.23
2023-01-17T16:50:15.671Z,100034.80
2023-01-17T16:52:42.222Z,100039.23
2023-01-17T16:55:11.773Z,100036.40
2023-01-17T16:57:38.651Z,100033.05
2023-01-17T17:00:06.109Z,100038.32
2023-01-17T17:02:33.217Z,100038.95
2023-01-17T17:04:59.996Z,100037.01
2023-01-17T17:07:26.642Z,100035.58
2023-01-17T17:09:53.289Z,100043.01
2023-01-17T17:12:20.431Z,100040.36
2023-01-17T17:14:47.478Z,100049.55
2023-01-17T17:17:14.858Z,100052.98
2023-01-17T17:19:42.290Z,100053.33
2023-01-17T17:22:09.788Z,100051.55
2023-01-17T17:24:36.894Z,100049.44
2023-01-17T17:27:04.043Z,100049.08
2023-01-17T17:29:30.906Z,100046.14
2023-01-17T17:31:58.648Z,100044.91
2023-01-17T17:34:27.162Z,100038.86
2023-01-17T17:36:53.876Z,100036.75
2023-01-17T17:39:22.357Z,100035.70
2023-01-17T17:41:49.097Z,100041.55
2023-01-17T17:44:16.731Z,100033.64
2023-01-17T17:46:44.182Z,100047.45
2023-01-17T17:49:11.064Z,100034.11
2023-01-17T17:51:38.703Z,100046.31
2023-01-17T17:54:10.590Z,100040.63
2023-01-17T17:56:38.341Z,100039.48
2023-01-17T17:59:06.631Z,100046.81
2023-01-17T18:01:37.577Z,100042.72
2023-01-17T18:04:06.779Z,100042.23
2023-01-17T18:06:34.632Z,100050.70
2023-01-17T18:09:02.490Z,100044.02
2023-01-17T18:11:29.666Z,100042.68
2023-01-17T18:13:58.672Z,100045.31
2023-01-17T18:16:28.024Z,100041.05
2023-01-17T18:18:55.929Z,100042.33
2023-01-17T18:21:24.580Z,100042.85
2023-01-17T18:23:54.242Z,100048.49
2023-01-17T18:26:31.405Z,100043.42
2023-01-17T18:28:58.708Z,100043.61
2023-01-17T18:31:27.103Z,100045.30
2023-01-17T18:33:55.000Z,100042.88
2023-01-17T18:36:23.074Z,100039.23
2023-01-17T18:38:49.822Z,100045.93
2023-01-17T18:41:18.610Z,100046.27
2023-01-17T18:43:45.952Z,100042.60
2023-01-17T18:46:14.520Z,100045.19
2023-01-17T18:48:41.689Z,100048.47
2023-01-17T18:51:10.679Z,100046.04
2023-01-17T18:53:38.167Z,100052.80
2023-01-17T18:56:07.165Z,100050.68
2023-01-17T18:58:38.919Z,100054.36
2023-01-17T19:01:28.927Z,100055.90
2023-01-17T19:03:59.671Z,100059.98
2023-01-17T19:06:29.670Z,100063.45
2023-01-17T19:08:59.965Z,100059.17
